Terminal Aerodrome Forecast
Issued by NWS

Home | Current Version | Previous Version | Text Only | Print | Product List | Glossary On
Versions: 1 2 3 4 5 6 7 8 9 10 11 12 13 14 15 16
000
FTUS43 KIND 202300
TAFBMG
TAF
KBMG 202325Z 2100/2124 26009KT P6SM SKC
     FM210600 31004KT P6SM SKC
     FM211500 12005KT P6SM SCT200
      AMD LTD TO CLD VIS AND WIND 2102/2114=

USA.gov is the U.S. government's official web portal to all federal, state and local government web resources and services.